Aeroporto :
LOGIN :

Iscrizione | Disclaimer

   EN    FR    IT 

 










Sommario :    VFR   VFR Marginale   IFR   IFR Intensivo   IFR Molto Intensivo
Visibilità : 
Base nubi : 
>= 8 km
>= 3000ft
5 / 8 km
1000 / 3000 ft
1500m / 5 km
500 / 1000 ft
800 / 1500m
200 / 500 ft
< 800m
< 200 ft
Simboli :   Temporali  Nebbia  Neve Forte  Precipitazioni Forti  Vento > 20 kt
SIGMETs :   Varie  Temporali  Ghiacco  Turbolenza  Onda orograficha  Ceneri Vulcaniche







- Altitudine del aeroporto : 436 ft
- Codice IATA : BTS


LZIB - Bratislava

ULTIMO METAR :
  • 261430Z 25007KT 210V290 CAVOK 26/12 Q1013 NOSIG

METARs OBSOLETI :
  • 261400Z 22005KT 150V260 CAVOK 25/12 Q1013 NOSIG
  • 261330Z VRB02KT CAVOK 25/13 Q1013 NOSIG
  • 261300Z VRB02KT CAVOK 25/14 Q1014 NOSIG
  • 261230Z 15004KT 120V200 9999 SCT048 24/13 Q1014 NOSIG
  • 261200Z VRB01KT 9999 FEW047 24/14 Q1014 NOSIG

TAF TAF LZIB
Valido dal 26 a 12 ore il 27 a 12 ore UTC


261100Z 2612/2712 24006KT 9999 FEW040
BECMG 2617/2619 CAVOK
BECMG 2621/2623 VRB02KT
BECMG 2708/2710 18010KT 9999 SCT035 BKN070
Nessun NOTAM noto per questo aeroporto.



MetMap, La meteo Aeronautica in un colpo d'occhio ! - Copyright ORBIFLY Dicembre 2007 - Disclaimer

ORBIFLY MET'MAP TEAM :

Programmazione e sviluppo : Alexandra Zaïnal
Concezione e sviluppo : Baudouin d'Aumeries
Co-Programmazione e sviluppo : Marc-Olivier Méhu
Supporto tecnico e logistico : Manuel Goepfert
Aiuto per la traduzione : Arnaldo La Scala

Contatto : metmap@orbifly.com




FONTI E CREDITI :

   NOAA